Time;durP1;ratioP1;P1;durP2;ratioP2;P2;SDS_P1;SDS_P2;PMS_P1;PMS_P2;Temp;Humidity;BMP_temperature;BMP_pressure;BME280_temperature;BME280_humidity;BME280_pressure;Samples;Min_cycle;Max_cycle;Signal;HPM_P1;HPM_P2
2022/12/17 13:08:29;;;;;;;33.63;15.10;;;;;;;-1.83;87.79;100867.47;12208078;19;20002;-87
2022/12/17 13:12:46;;;;;;;35.13;15.98;;;;;;;-2.20;88.85;100863.78;12206481;19;20031;-88
2022/12/17 13:16:55;;;;;;;31.48;14.48;;;;;;;-2.37;90.42;100871.59;12180275;19;20007;-85
2022/12/17 13:21:15;;;;;;;31.52;15.30;;;;;;;-2.41;90.60;100859.41;12213519;19;20050;-87
2022/12/17 13:25:20;;;;;;;37.83;14.90;;;;;;;-2.78;90.40;100851.94;12194646;19;20035;-85
2022/12/17 13:29:28;;;;;;;46.95;16.25;;;;;;;-3.05;91.70;100860.66;12213366;19;20030;-86
2022/12/17 13:33:42;;;;;;;39.10;15.52;;;;;;;-3.24;92.16;100861.44;12204313;19;20007;-85
2022/12/17 13:38:13;;;;;;;39.28;14.80;;;;;;;-3.37;92.92;100857.25;12187075;19;20381;-87
2022/12/17 13:42:19;;;;;;;37.63;15.07;;;;;;;-3.58;93.34;100849.19;12202941;19;20006;-83
2022/12/17 13:46:29;;;;;;;39.38;15.18;;;;;;;-3.72;94.16;100855.75;12186499;19;20357;-85
2022/12/17 13:50:31;;;;;;;43.85;17.70;;;;;;;-3.80;95.24;100853.75;12203252;19;20039;-84
2022/12/17 13:54:35;;;;;;;45.50;15.90;;;;;;;-3.79;95.41;100849.19;12205015;19;20010;-85
2022/12/17 13:58:36;;;;;;;39.17;15.87;;;;;;;-3.80;96.01;100848.34;12195142;19;20027;-85
2022/12/17 14:02:41;;;;;;;38.08;15.27;;;;;;;-3.75;95.65;100843.44;12208453;19;20030;-85
2022/12/17 14:06:44;;;;;;;44.38;16.77;;;;;;;-3.83;96.93;100854.00;12212218;19;20023;-83
2022/12/17 14:10:50;;;;;;;41.72;15.70;;;;;;;-3.85;97.51;100852.44;12198887;19;20071;-86
2022/12/17 14:14:55;;;;;;;39.80;17.13;;;;;;;-3.81;97.94;100861.94;12219342;19;20007;-84
2022/12/17 14:18:58;;;;;;;45.95;16.23;;;;;;;-3.73;99.29;100863.00;12197418;19;20027;-86
2022/12/17 14:23:09;;;;;;;41.67;16.50;;;;;;;-3.71;99.58;100857.47;12245801;19;20003;-86
2022/12/17 14:27:25;;;;;;;41.10;16.05;;;;;;;-3.71;99.94;100865.56;12213768;19;20002;-86
2022/12/17 14:31:27;;;;;;;42.30;16.48;;;;;;;-3.71;99.30;100854.78;12194059;19;20017;-84
2022/12/17 14:35:38;;;;;;;42.17;17.60;;;;;;;-3.77;99.78;100856.16;12218224;19;20009;-82
2022/12/17 14:39:44;;;;;;;39.33;15.55;;;;;;;-3.81;100.00;100852.00;12223468;19;20007;-81
2022/12/17 14:43:54;;;;;;;44.30;15.63;;;;;;;-3.87;100.00;100857.06;12191767;19;20002;-82
2022/12/17 14:47:58;;;;;;;44.33;16.55;;;;;;;-3.96;100.00;100864.94;12218689;19;20014;-80
2022/12/17 14:52:12;;;;;;;42.70;15.65;;;;;;;-4.00;100.00;100871.59;12193771;19;20010;-82
2022/12/17 14:56:31;;;;;;;36.30;15.90;;;;;;;-4.06;100.00;100876.66;12222514;19;20037;-83
2022/12/17 15:00:37;;;;;;;41.15;16.10;;;;;;;-4.17;100.00;100882.91;12225094;19;20066;-86
2022/12/17 15:04:39;;;;;;;43.58;16.13;;;;;;;-4.25;100.00;100897.03;12194649;19;20009;-83
2022/12/17 15:08:43;;;;;;;41.30;16.17;;;;;;;-4.39;100.00;100894.63;12216846;19;20015;-80
2022/12/17 15:12:46;;;;;;;41.60;16.88;;;;;;;-4.50;100.00;100892.81;12211207;19;20011;-83
2022/12/17 15:16:48;;;;;;;39.10;15.32;;;;;;;-4.57;100.00;100902.38;12197960;19;20030;-79
2022/12/17 15:20:50;;;;;;;44.17;15.73;;;;;;;-4.60;100.00;100908.00;12218953;19;20360;-82
2022/12/17 15:24:51;;;;;;;46.70;16.83;;;;;;;-4.65;100.00;100912.91;12212074;19;20010;-81
2022/12/17 15:28:53;;;;;;;39.27;15.87;;;;;;;-4.77;100.00;100921.97;12223674;19;20083;-81
2022/12/17 15:32:55;;;;;;;39.38;14.82;;;;;;;-4.87;100.00;100924.53;12222761;19;20017;-84
2022/12/17 15:36:57;;;;;;;33.20;13.25;;;;;;;-4.94;100.00;100926.84;12200419;19;20022;-80
2022/12/17 15:43:09;;;;;;;33.83;14.37;;;;;;;-4.99;100.00;100928.22;12224771;19;20361;-81
2022/12/17 15:45:22;;;;;;;;;;;;;;;-5.05;100.00;100927.72;12216082;19;20013;-80
2022/12/17 15:49:23;;;;;;;38.13;12.80;;;;;;;-5.12;100.00;100929.16;12189993;19;19939;-83
2022/12/17 15:53:25;;;;;;;26.50;9.97;;;;;;;-5.21;100.00;100929.03;12212699;19;20014;-81
2022/12/17 15:57:28;;;;;;;39.47;13.63;;;;;;;-5.30;100.00;100925.25;12211137;19;20361;-81
2022/12/17 16:01:32;;;;;;;37.00;15.07;;;;;;;-5.35;100.00;100930.16;12190220;19;20376;-83
2022/12/17 16:05:35;;;;;;;40.17;14.82;;;;;;;-5.42;100.00;100931.59;12209480;19;20035;-82
2022/12/17 16:09:36;;;;;;;42.22;15.82;;;;;;;-5.47;100.00;100929.28;12216740;19;20034;-83
2022/12/17 16:13:39;;;;;;;41.80;14.93;;;;;;;-5.52;100.00;100935.00;12191969;19;20038;-83
2022/12/17 16:17:41;;;;;;;39.15;15.05;;;;;;;-5.63;100.00;100940.31;12256994;19;21214;-80
2022/12/17 16:21:43;;;;;;;33.43;13.53;;;;;;;-5.68;100.00;100941.66;12242794;19;20037;-81
2022/12/17 16:25:58;;;;;;;37.33;14.25;;;;;;;-5.77;100.00;100948.56;12221248;19;20273;-79
2022/12/17 16:30:00;;;;;;;37.88;14.00;;;;;;;-5.89;100.00;100946.81;12272194;19;21981;-78
2022/12/17 16:34:07;;;;;;;32.60;13.57;;;;;;;-5.98;100.00;100945.72;12227238;19;20015;-81
2022/12/17 16:38:09;;;;;;;40.17;15.18;;;;;;;-6.04;100.00;100936.34;12216525;19;20003;-83
2022/12/17 16:42:10;;;;;;;68.77;23.20;;;;;;;-6.09;100.00;100949.22;12205820;19;20063;-82
2022/12/17 16:46:36;;;;;;;34.47;15.40;;;;;;;-6.16;100.00;100958.69;12189472;19;20520;-81
2022/12/17 16:50:38;;;;;;;39.45;14.95;;;;;;;-6.25;100.00;100962.91;12210350;19;20018;-82
2022/12/17 16:54:42;;;;;;;34.40;13.90;;;;;;;-6.31;100.00;100954.47;12208206;19;20023;-82
2022/12/17 16:58:44;;;;;;;29.00;11.23;;;;;;;-6.42;100.00;100963.31;12184142;19;20026;-82
2022/12/17 17:02:46;;;;;;;41.65;14.20;;;;;;;-6.52;100.00;100968.47;12196546;19;20034;-82
2022/12/17 17:06:56;;;;;;;38.28;14.05;;;;;;;-6.55;100.00;100976.75;12189524;19;20007;-80
2022/12/17 17:11:06;;;;;;;44.35;15.13;;;;;;;-6.60;100.00;100978.94;12219040;19;20021;-82
2022/12/17 17:15:09;;;;;;;41.05;14.77;;;;;;;-6.67;100.00;100975.81;12200326;19;20003;-80
2022/12/17 17:19:13;;;;;;;45.97;17.17;;;;;;;-6.71;100.00;100981.53;12187407;19;20083;-84
2022/12/17 17:23:17;;;;;;;45.00;14.27;;;;;;;-6.70;100.00;100985.91;12200338;19;20055;-82
2022/12/17 17:27:19;;;;;;;35.80;13.88;;;;;;;-6.73;100.00;100980.75;12201933;19;20027;-81
2022/12/17 17:31:21;;;;;;;40.25;15.85;;;;;;;-6.81;100.00;100977.75;12182425;19;20002;-80
2022/12/17 17:35:31;;;;;;;39.38;15.15;;;;;;;-6.85;100.00;100973.59;12207305;19;20019;-82
2022/12/17 17:39:33;;;;;;;38.50;14.98;;;;;;;-6.92;100.00;100970.50;12202127;19;20259;-81
2022/12/17 17:43:34;;;;;;;34.35;14.07;;;;;;;-7.01;100.00;100969.34;12180817;19;20014;-84
2022/12/17 17:47:36;;;;;;;41.03;14.02;;;;;;;-7.01;100.00;100965.81;12211265;19;20018;-84
2022/12/17 17:51:41;;;;;;;42.33;14.03;;;;;;;-7.10;100.00;100972.66;12210906;19;20073;-83
2022/12/17 17:56:05;;;;;;;32.08;13.02;;;;;;;-7.21;100.00;100984.13;12188335;19;20252;-78
2022/12/17 18:00:09;;;;;;;38.58;15.30;;;;;;;-7.24;100.00;100989.69;12213439;19;20009;-83
2022/12/17 18:04:14;;;;;;;35.05;13.57;;;;;;;-7.21;100.00;100999.34;12187589;19;20010;-81
2022/12/17 18:08:15;;;;;;;39.50;14.65;;;;;;;-7.26;100.00;100994.28;12218221;19;20023;-83
2022/12/17 18:16:42;;;;;;;43.03;13.35;;;;;;;-7.35;100.00;101001.16;12200271;19;20007;-83
2022/12/17 18:20:44;;;;;;;38.28;13.52;;;;;;;-7.37;100.00;101013.78;12214552;19;20010;-82
2022/12/17 18:24:46;;;;;;;43.00;15.47;;;;;;;-7.40;100.00;101022.03;12207227;19;20023;-84
2022/12/17 18:28:49;;;;;;;44.92;14.43;;;;;;;-7.47;100.00;101001.97;12189588;19;20248;-81
2022/12/17 18:32:53;;;;;;;38.42;15.00;;;;;;;-7.48;100.00;101013.66;12221240;19;20038;-84
2022/12/17 18:36:55;;;;;;;;;;;;;;;-7.54;100.00;101019.44;12191621;19;20014;-82
2022/12/17 18:41:04;;;;;;;38.63;15.40;;;;;;;-7.60;100.00;101017.19;12215881;19;20648;-84
2022/12/17 18:45:06;;;;;;;45.25;15.23;;;;;;;-7.64;100.00;101015.69;12209396;19;20030;-82
2022/12/17 18:49:09;;;;;;;;;;;;;;;-7.65;100.00;101019.31;12193061;19;20482;-80
2022/12/17 18:53:11;;;;;;;31.88;13.95;;;;;;;-7.66;100.00;101020.28;12251571;19;19939;-78
2022/12/17 18:57:12;;;;;;;49.92;15.07;;;;;;;-7.65;100.00;101022.81;12231473;19;20470;-82
2022/12/17 19:01:26;;;;;;;38.53;14.60;;;;;;;-7.63;100.00;101022.75;12198112;19;20013;-80
2022/12/17 19:05:27;;;;;;;42.25;15.02;;;;;;;-7.63;100.00;101022.75;12213559;19;20336;-78
2022/12/17 19:09:34;;;;;;;33.85;14.02;;;;;;;-7.66;100.00;101028.31;12211817;19;20030;-82
2022/12/17 19:13:36;;;;;;;34.75;14.50;;;;;;;-7.66;100.00;101036.34;12183946;19;20447;-82
2022/12/17 19:17:37;;;;;;;34.80;13.43;;;;;;;-7.68;100.00;101030.22;12213253;19;20011;-83
2022/12/17 19:21:40;;;;;;;37.95;14.20;;;;;;;-7.69;100.00;101039.22;12212443;19;20412;-83
2022/12/17 19:25:42;;;;;;;36.10;14.60;;;;;;;-7.76;100.00;101030.75;12188611;19;20002;-82
2022/12/17 19:29:43;;;;;;;36.33;14.90;;;;;;;-7.87;100.00;101034.13;12210645;19;20006;-82
2022/12/17 19:33:54;;;;;;;33.58;13.07;;;;;;;-7.87;100.00;101030.59;12205789;19;20287;-83
2022/12/17 19:37:56;;;;;;;34.83;14.05;;;;;;;-7.89;100.00;101017.31;12188627;19;20031;-81
2022/12/17 19:41:58;;;;;;;37.90;13.07;;;;;;;-7.89;100.00;101022.66;12212697;19;20002;-81
2022/12/17 19:46:01;;;;;;;31.63;13.47;;;;;;;-7.91;100.00;101029.94;12189702;19;20010;-83
2022/12/17 19:50:04;;;;;;;42.67;15.43;;;;;;;-7.88;100.00;101040.44;12206447;19;20359;-84
2022/12/17 19:54:06;;;;;;;41.47;13.93;;;;;;;-7.92;100.00;101046.94;12218647;19;20007;-82
2022/12/17 19:58:10;;;;;;;50.30;16.65;;;;;;;-7.96;100.00;101050.78;12186644;19;20010;-82
2022/12/17 20:02:11;;;;;;;41.00;14.93;;;;;;;-8.00;100.00;101041.25;12202038;19;20014;-82
2022/12/17 20:06:16;;;;;;;40.35;14.52;;;;;;;-8.00;100.00;101037.69;12202141;19;20785;-82
2022/12/17 20:10:18;;;;;;;33.30;13.90;;;;;;;-8.02;100.00;101054.72;12186328;19;20027;-82
2022/12/17 20:14:27;;;;;;;42.35;14.82;;;;;;;-8.04;100.00;101056.63;12207368;19;20011;-81
2022/12/17 20:18:29;;;;;;;41.28;16.23;;;;;;;-8.03;100.00;101052.13;12244277;19;20010;-82
2022/12/17 20:22:31;;;;;;;34.42;14.98;;;;;;;-8.05;100.00;101049.56;12228175;19;19999;-80
2022/12/17 20:26:33;;;;;;;44.67;16.38;;;;;;;-8.05;100.00;101056.75;12246918;19;20006;-79
2022/12/17 20:30:39;;;;;;;36.58;16.52;;;;;;;-8.09;100.00;101071.25;12243251;19;20040;-80
2022/12/17 20:34:41;;;;;;;42.20;16.48;;;;;;;-8.14;100.00;101070.72;12217876;19;20388;-79
2022/12/17 20:38:43;;;;;;;43.53;19.42;;;;;;;-8.25;100.00;101064.22;12238538;19;20002;-84
2022/12/17 20:42:45;;;;;;;44.78;16.98;;;;;;;-8.33;100.00;101077.25;12238492;19;20007;-78
2022/12/17 20:46:47;;;;;;;45.15;17.33;;;;;;;-8.32;100.00;101081.63;12219776;19;20481;-81
2022/12/17 20:50:49;;;;;;;41.35;16.58;;;;;;;-8.37;100.00;101080.19;12245492;19;20040;-80
2022/12/17 20:54:50;;;;;;;43.78;16.77;;;;;;;-8.36;100.00;101066.72;12257687;19;19998;-79
2022/12/17 20:58:54;;;;;;;34.78;12.65;;;;;;;-8.39;100.00;101087.47;12194115;19;20018;-82
2022/12/17 21:02:56;;;;;;;41.30;16.10;;;;;;;-8.45;100.00;101078.03;12203744;19;20018;-83
2022/12/17 21:06:58;;;;;;;38.70;14.90;;;;;;;-8.49;100.00;101055.97;12188668;19;20011;-81
2022/12/17 21:10:59;;;;;;;32.80;14.60;;;;;;;-8.49;100.00;101057.81;12215605;19;20050;-82
2022/12/17 21:15:01;;;;;;;37.92;15.20;;;;;;;-8.53;100.00;101043.78;12202078;19;20492;-83
2022/12/17 21:19:05;;;;;;;42.03;15.63;;;;;;;-8.46;100.00;101038.91;12197410;19;20002;-82
2022/12/17 21:23:06;;;;;;;39.10;15.27;;;;;;;-8.54;100.00;101070.59;12217967;19;20045;-82
2022/12/17 21:27:08;;;;;;;38.00;14.18;;;;;;;-8.56;100.00;101084.06;12214208;19;20106;-83
2022/12/17 21:31:22;;;;;;;36.83;13.73;;;;;;;-8.59;100.00;101088.75;12193291;19;20043;-81
2022/12/17 21:35:24;;;;;;;34.50;13.75;;;;;;;-8.66;100.00;101082.91;12219985;19;20014;-82
2022/12/17 21:39:26;;;;;;;30.55;12.32;;;;;;;-8.68;100.00;101087.50;12223227;19;20058;-82
2022/12/17 21:43:41;;;;;;;36.63;13.38;;;;;;;-8.68;100.00;101083.94;12256234;19;20010;-79
2022/12/17 21:47:43;;;;;;;32.15;13.20;;;;;;;-8.72;100.00;101084.16;12276411;19;19995;-82
2022/12/17 21:51:44;;;;;;;32.45;12.90;;;;;;;-8.81;100.00;101090.06;12227917;19;20010;-82
2022/12/17 21:55:47;;;;;;;33.08;13.35;;;;;;;-8.82;100.00;101083.00;12196272;19;20003;-81
2022/12/17 21:59:49;;;;;;;27.65;12.05;;;;;;;-8.82;100.00;101080.34;12219603;19;20027;-80
2022/12/17 22:03:55;;;;;;;26.02;11.75;;;;;;;-8.85;100.00;101093.88;12227263;19;20035;-82
2022/12/17 22:07:58;;;;;;;29.48;11.20;;;;;;;-8.86;100.00;101088.63;12232093;19;20006;-83
2022/12/17 22:16:21;;;;;;;29.33;11.00;;;;;;;-8.82;100.00;101090.16;12201307;19;20036;-81
2022/12/17 22:20:23;;;;;;;27.35;11.80;;;;;;;-8.79;100.00;101087.31;12227477;19;19999;-82
2022/12/17 22:24:25;;;;;;;30.83;12.15;;;;;;;-8.79;100.00;101081.97;12219430;19;20411;-82
2022/12/17 22:28:29;;;;;;;29.13;11.98;;;;;;;-8.79;100.00;101074.81;12197490;19;20385;-83
2022/12/17 22:36:52;;;;;;;34.20;12.35;;;;;;;-8.82;100.00;101069.66;12260541;19;20059;-80
2022/12/17 22:43:28;;;;;;;27.55;12.00;;;;;;;-8.86;100.00;101084.16;12228615;19;20007;-81
2022/12/17 22:46:03;;;;;;;33.33;11.95;;;;;;;-8.87;100.00;101068.22;12221333;19;20014;-82
2022/12/17 22:50:07;;;;;;;31.48;13.77;;;;;;;-8.87;100.00;101090.44;12240469;19;20996;-82
2022/12/17 22:54:10;;;;;;;30.48;12.57;;;;;;;-8.88;100.00;101078.03;12231109;19;20081;-82
2022/12/17 22:58:13;;;;;;;32.42;12.20;;;;;;;-8.92;100.00;101079.19;12207787;19;20035;-83
2022/12/17 23:02:14;;;;;;;34.00;13.50;;;;;;;-8.85;100.00;101085.88;12224159;19;20010;-81
2022/12/17 23:06:16;;;;;;;40.38;14.27;;;;;;;-8.84;100.00;101086.72;12221679;19;20034;-83
2022/12/17 23:10:19;;;;;;;29.30;13.52;;;;;;;-8.80;100.00;101081.13;12199241;19;20076;-83
2022/12/17 23:14:20;;;;;;;34.10;12.95;;;;;;;-8.80;100.00;101078.44;12218241;19;20031;-83
2022/12/17 23:18:22;;;;;;;38.70;14.63;;;;;;;-8.79;100.00;101074.81;12220930;19;20485;-83
2022/12/17 23:22:24;;;;;;;38.75;13.98;;;;;;;-8.79;100.00;101080.16;12195431;19;20006;-82
2022/12/17 23:26:29;;;;;;;30.58;13.05;;;;;;;-8.75;100.00;101076.31;12216670;19;20050;-82
2022/12/17 23:30:31;;;;;;;35.30;14.30;;;;;;;-8.72;100.00;101081.47;12218861;19;20086;-83
2022/12/17 23:34:33;;;;;;;36.65;14.55;;;;;;;-8.72;100.00;101078.78;12196104;19;20002;-83
2022/12/17 23:38:35;;;;;;;24.13;8.98;;;;;;;-8.74;100.00;101078.06;12219913;19;20011;-83
2022/12/17 23:42:37;;;;;;;25.75;11.18;;;;;;;-8.70;100.00;101072.53;12214767;19;20031;-82
2022/12/17 23:46:39;;;;;;;37.65;14.23;;;;;;;-8.69;100.00;101071.56;12195334;19;20046;-82
2022/12/17 23:50:40;;;;;;;38.10;12.30;;;;;;;-8.67;100.00;101069.66;12218518;19;20014;-81
2022/12/17 23:54:42;;;;;;;34.70;12.98;;;;;;;-8.66;100.00;101079.38;12215923;19;20006;-83
2022/12/17 23:58:45;;;;;;;39.78;13.10;;;;;;;-8.65;100.00;101086.47;12194316;19;20015;-83
